Terminal Aerodrome Forecast
Issued by NWS Charleston, WV

Current Version | Previous Version | Graphics & Text | Print | Product List | Glossary On
Versions: 1 2 3 4 5 6 7 8 9 10 11 12 13 14 15 16 17 18 19 20 21 22 23 24 25 26 27 28 29
000
FTUS41 KRLX 292342 CCA
TAFCRW
TAF COR
KCRW 292342Z 3000/3024 20004KT P6SM VCSH BKN040
     FM300400 25004KT P6SM VCTS BKN050CB
     FM300700 VRB03KT 5SM SHRA BR VCTS BKN040CB
     FM301000 VRB03KT 3SM BR BKN035
     FM301300 29004KT 6SM HZ BKN035
     FM301400 31004KT P6SM SCT030
     FM302100 30008KT P6SM FEW050=

USA.gov is the U.S. government's official web portal to all federal, state and local government web resources and services.